Time;durP1;ratioP1;P1;durP2;ratioP2;P2;SDS_P1;SDS_P2;PMS_P1;PMS_P2;Temp;Humidity;BMP_temperature;BMP_pressure;BME280_temperature;BME280_humidity;BME280_pressure;Samples;Min_cycle;Max_cycle;Signal;HPM_P1;HPM_P2
2023/06/22 00:00:12;;;;;;;11.03;5.60;;;29.20;97.70;;;;;;1818622;77;21141;-77
2023/06/22 00:02:37;;;;;;;13.48;6.12;;;29.20;97.70;;;;;;1805213;78;21094;-76
2023/06/22 00:05:09;;;;;;;13.72;5.75;;;29.20;97.80;;;;;;1810133;78;21078;-76
2023/06/22 00:07:40;;;;;;;12.95;6.00;;;29.20;98.00;;;;;;1834968;76;21249;-75
2023/06/22 00:10:11;;;;;;;13.28;5.37;;;29.30;97.90;;;;;;1853396;76;21186;-78
2023/06/22 00:12:43;;;;;;;9.73;5.37;;;29.30;97.90;;;;;;1854171;76;21077;-75
2023/06/22 00:15:19;;;;;;;9.48;4.92;;;29.30;97.80;;;;;;1841637;76;21211;-75
2023/06/22 00:17:52;;;;;;;12.25;5.65;;;29.40;97.80;;;;;;1834017;77;21191;-77
2023/06/22 00:20:27;;;;;;;15.30;5.50;;;29.50;97.60;;;;;;1825267;77;21159;-79
2023/06/22 00:22:57;;;;;;;37.95;9.98;;;29.50;97.70;;;;;;1830759;77;21218;-81
2023/06/22 00:25:29;;;;;;;14.13;6.00;;;29.60;97.80;;;;;;1826692;77;21095;-78
2023/06/22 00:28:00;;;;;;;13.55;5.80;;;29.60;97.60;;;;;;1830121;76;21093;-81
2023/06/22 00:30:32;;;;;;;10.15;5.03;;;29.70;97.60;;;;;;1834183;76;21249;-80
2023/06/22 00:33:07;;;;;;;9.10;5.17;;;29.70;97.50;;;;;;1833788;77;21084;-80
2023/06/22 00:35:41;;;;;;;12.60;5.12;;;29.70;97.40;;;;;;1827880;77;21138;-78
2023/06/22 00:38:11;;;;;;;10.25;5.05;;;29.80;97.50;;;;;;1828236;78;21173;-82
2023/06/22 00:40:44;;;;;;;12.50;4.67;;;29.80;97.20;;;;;;1849099;76;21153;-82
2023/06/22 00:43:16;;;;;;;9.45;4.60;;;29.90;97.10;;;;;;1808849;78;21108;-82
2023/06/22 00:45:49;;;;;;;11.50;4.87;;;29.90;97.10;;;;;;1861849;76;21085;-81
2023/06/22 00:48:22;;;;;;;14.07;5.20;;;30.00;97.10;;;;;;1831933;76;21632;-77
2023/06/22 00:50:55;;;;;;;23.40;5.30;;;30.10;97.00;;;;;;1830236;78;21164;-80
2023/06/22 00:53:29;;;;;;;11.85;5.30;;;30.10;96.90;;;;;;1825298;77;21190;-81
2023/06/22 00:56:03;;;;;;;17.73;5.70;;;30.20;96.70;;;;;;1834219;76;21120;-81
2023/06/22 00:58:36;;;;;;;37.00;8.30;;;30.30;96.30;;;;;;1845312;77;21173;-79
2023/06/22 01:01:09;;;;;;;12.65;4.50;;;30.40;96.30;;;;;;1829391;78;21178;-75
2023/06/22 01:03:47;;;;;;;8.33;4.50;;;30.50;96.00;;;;;;1846153;76;21207;-76
2023/06/22 01:06:24;;;;;;;10.13;4.70;;;30.50;95.90;;;;;;1845833;76;21114;-78
2023/06/22 01:08:57;;;;;;;13.55;4.85;;;30.60;95.40;;;;;;1828363;78;21165;-78
2023/06/22 01:11:33;;;;;;;17.98;6.67;;;30.60;95.60;;;;;;1817096;77;21195;-80
2023/06/22 01:14:09;;;;;;;20.70;5.33;;;30.60;95.60;;;;;;1835402;77;21131;-81
2023/06/22 01:16:45;;;;;;;13.40;5.72;;;30.70;95.60;;;;;;1864664;76;21115;-82
2023/06/22 01:19:38;;;;;;;17.02;5.12;;;30.80;95.70;;;;;;1837423;76;21134;-80
2023/06/22 01:22:15;;;;;;;14.45;4.80;;;30.80;95.70;;;;;;1846465;76;21119;-79
2023/06/22 01:24:58;;;;;;;18.95;5.45;;;30.90;95.60;;;;;;1844096;76;21254;-82
2023/06/22 01:27:53;;;;;;;21.12;5.90;;;30.90;95.50;;;;;;1847532;76;21131;-79
2023/06/22 01:30:26;;;;;;;36.95;6.90;;;31.00;95.60;;;;;;1848938;76;21075;-81
2023/06/22 01:33:00;;;;;;;14.43;5.60;;;31.10;95.50;;;;;;1824557;78;21234;-80
2023/06/22 01:35:32;;;;;;;18.05;5.80;;;31.20;95.20;;;;;;1824308;77;21205;-82
2023/06/22 01:38:05;;;;;;;24.45;6.83;;;31.20;95.30;;;;;;1821974;76;21247;-83
2023/06/22 01:40:38;;;;;;;28.62;7.75;;;31.40;95.00;;;;;;1826293;77;21215;-80
2023/06/22 01:43:10;;;;;;;16.12;4.78;;;31.50;94.70;;;;;;1828451;76;21133;-78
2023/06/22 01:45:42;;;;;;;7.05;4.22;;;31.50;94.50;;;;;;1807096;77;21109;-79
2023/06/22 01:48:14;;;;;;;7.95;3.67;;;31.60;94.00;;;;;;1835988;76;21168;-72
2023/06/22 01:50:49;;;;;;;9.25;3.80;;;31.60;94.30;;;;;;1800537;78;21227;-72
2023/06/22 01:53:26;;;;;;;11.80;4.50;;;31.60;94.30;;;;;;1816927;76;21138;-71
2023/06/22 01:55:58;;;;;;;11.08;4.55;;;31.70;94.20;;;;;;1845384;76;21130;-72
2023/06/22 01:58:31;;;;;;;12.25;4.72;;;31.80;93.80;;;;;;1845999;76;21859;-71
2023/06/22 02:01:10;;;;;;;14.95;5.45;;;31.90;93.60;;;;;;1832028;76;21606;-71
2023/06/22 02:03:44;;;;;;;20.65;6.30;;;32.00;93.60;;;;;;1788196;78;21102;-71
2023/06/22 02:06:20;;;;;;;23.18;4.75;;;32.10;93.40;;;;;;1811414;77;21206;-71
2023/06/22 02:08:55;;;;;;;18.87;4.90;;;32.20;93.30;;;;;;1807333;77;21170;-73
2023/06/22 02:11:28;;;;;;;9.43;3.62;;;32.30;93.40;;;;;;1794601;78;21622;-70
2023/06/22 02:14:01;;;;;;;11.60;4.60;;;32.40;92.90;;;;;;1809584;77;21956;-72
2023/06/22 02:16:33;;;;;;;16.52;4.53;;;32.50;93.10;;;;;;1824239;78;21592;-71
2023/06/22 02:19:06;;;;;;;13.10;5.03;;;32.50;92.50;;;;;;1817187;77;21597;-70
2023/06/22 02:21:37;;;;;;;9.73;4.30;;;32.50;92.60;;;;;;1855583;76;21144;-72
2023/06/22 02:24:09;;;;;;;13.40;4.40;;;32.60;92.30;;;;;;1842986;77;21224;-72
2023/06/22 02:26:44;;;;;;;8.50;3.85;;;32.60;92.40;;;;;;1852540;76;21574;-72
2023/06/22 02:29:15;;;;;;;37.38;5.83;;;32.80;91.90;;;;;;1814020;77;21291;-71
2023/06/22 02:31:47;;;;;;;55.90;7.87;;;32.90;92.10;;;;;;1806265;78;21664;-72
2023/06/22 02:34:24;;;;;;;15.35;5.28;;;33.00;91.50;;;;;;1833444;76;21135;-72
2023/06/22 02:37:00;;;;;;;11.15;3.87;;;33.10;91.40;;;;;;1794027;79;21148;-70
2023/06/22 02:39:33;;;;;;;30.12;6.25;;;33.20;91.40;;;;;;1801737;79;21268;-70
2023/06/22 02:42:07;;;;;;;25.30;4.80;;;33.30;91.50;;;;;;1808032;79;21058;-72
2023/06/22 02:44:39;;;;;;;18.37;4.87;;;33.40;90.60;;;;;;1821192;78;21182;-71
2023/06/22 02:47:12;;;;;;;9.78;3.25;;;33.40;91.10;;;;;;1828425;78;21260;-73
2023/06/22 02:49:45;;;;;;;10.35;3.47;;;33.50;90.20;;;;;;1811282;77;21584;-71
2023/06/22 02:52:18;;;;;;;18.30;4.05;;;33.50;90.40;;;;;;1830226;78;21607;-71
2023/06/22 02:54:49;;;;;;;9.23;3.27;;;33.60;90.60;;;;;;1824486;77;21195;-74
2023/06/22 02:57:22;;;;;;;11.30;3.42;;;33.60;90.20;;;;;;1835093;77;21553;-82
2023/06/22 03:00:12;;;;;;;17.75;4.33;;;33.70;90.40;;;;;;1818426;78;21647;-80
2023/06/22 03:02:55;;;;;;;14.10;3.75;;;33.70;89.70;;;;;;1798074;78;21133;-76
2023/06/22 03:05:32;;;;;;;26.20;4.47;;;33.80;90.10;;;;;;1813864;77;21182;-76
2023/06/22 03:08:08;;;;;;;8.88;3.00;;;33.90;89.50;;;;;;1794305;78;21190;-76
2023/06/22 03:10:39;;;;;;;10.05;3.12;;;34.00;87.70;;;;;;1815970;78;21197;-78
2023/06/22 03:13:14;;;;;;;9.93;3.20;;;34.10;88.60;;;;;;1819506;77;21183;-76
2023/06/22 03:15:51;;;;;;;12.00;4.30;;;34.20;87.90;;;;;;1819892;77;21268;-75
2023/06/22 03:18:24;;;;;;;6.28;2.85;;;34.20;88.30;;;;;;1796740;78;21120;-76
2023/06/22 03:20:56;;;;;;;10.75;3.15;;;34.30;87.50;;;;;;1824884;77;21215;-74
2023/06/22 03:23:27;;;;;;;18.48;3.58;;;34.40;87.40;;;;;;1823410;78;21158;-74
2023/06/22 03:25:59;;;;;;;7.00;3.22;;;34.40;87.10;;;;;;1788022;79;21639;-75
2023/06/22 03:28:31;;;;;;;10.98;3.25;;;34.40;86.60;;;;;;1828884;78;21096;-76
2023/06/22 03:31:02;;;;;;;15.93;3.33;;;34.50;86.70;;;;;;1819393;77;21542;-77
2023/06/22 03:33:35;;;;;;;8.28;2.33;;;34.60;85.60;;;;;;1811178;77;21137;-76
2023/06/22 03:36:08;;;;;;;9.08;3.05;;;34.60;83.60;;;;;;1831606;77;21121;-77
2023/06/22 03:38:59;;;;;;;5.47;2.25;;;34.60;84.30;;;;;;1850544;76;21108;-75
2023/06/22 03:41:32;;;;;;;24.35;4.20;;;34.50;83.80;;;;;;1851042;76;21190;-75
2023/06/22 03:44:04;;;;;;;14.50;3.92;;;34.50;84.50;;;;;;1851119;77;21187;-75
2023/06/22 03:46:36;;;;;;;22.00;4.12;;;34.60;84.90;;;;;;1860743;76;21644;-76
2023/06/22 03:49:08;;;;;;;12.10;2.98;;;34.70;85.70;;;;;;1856461;76;21083;-77
2023/06/22 03:51:39;;;;;;;8.43;3.20;;;34.80;85.80;;;;;;1826295;77;21135;-75
2023/06/22 03:54:11;;;;;;;6.75;2.30;;;34.90;84.40;;;;;;1857226;76;21196;-76
2023/06/22 03:56:43;;;;;;;8.15;2.65;;;35.00;83.90;;;;;;1864317;76;21136;-73
2023/06/22 03:59:14;;;;;;;8.33;2.40;;;35.00;83.50;;;;;;1818380;78;21947;-76
2023/06/22 04:01:46;;;;;;;5.78;2.45;;;35.10;83.30;;;;;;1858737;75;21111;-74
2023/06/22 04:04:19;;;;;;;32.08;6.67;;;35.10;82.60;;;;;;1857411;76;21142;-75
2023/06/22 04:06:52;;;;;;;16.65;4.10;;;35.20;82.00;;;;;;1874590;75;21095;-75
2023/06/22 04:09:24;;;;;;;13.00;3.02;;;35.20;81.30;;;;;;1851172;76;21566;-77
2023/06/22 04:11:56;;;;;;;10.25;2.90;;;35.20;82.90;;;;;;1803430;78;21156;-77
2023/06/22 04:14:28;;;;;;;13.15;3.55;;;35.20;82.00;;;;;;1829986;77;21086;-78
2023/06/22 04:17:01;;;;;;;6.67;2.47;;;35.20;81.90;;;;;;1804275;78;21193;-77
2023/06/22 04:19:36;;;;;;;16.00;3.12;;;35.20;81.50;;;;;;1828746;77;21170;-78
2023/06/22 04:22:26;;;;;;;19.65;3.27;;;35.30;82.70;;;;;;1831054;77;21906;-81
2023/06/22 04:24:59;;;;;;;6.20;2.10;;;35.40;81.10;;;;;;1834973;76;21096;-83
2023/06/22 04:27:31;;;;;;;5.55;2.47;;;35.40;80.30;;;;;;1828818;76;21135;-83
2023/06/22 04:30:03;;;;;;;6.30;2.40;;;35.30;80.30;;;;;;1828830;77;21211;-84
2023/06/22 04:32:40;;;;;;;4.70;2.15;;;35.30;80.00;;;;;;1828151;76;21121;-80
2023/06/22 04:35:09;;;;;;;4.92;2.70;;;35.20;79.80;;;;;;1828590;76;21127;-78
2023/06/22 04:37:48;;;;;;;5.20;2.10;;;35.10;80.90;;;;;;1826616;77;21476;-79
2023/06/22 04:40:22;;;;;;;9.50;3.10;;;35.00;80.20;;;;;;1849544;77;21130;-81
2023/06/22 04:42:54;;;;;;;17.65;3.22;;;35.00;80.80;;;;;;1801442;78;21709;-77
2023/06/22 04:45:29;;;;;;;9.85;3.92;;;35.10;81.20;;;;;;1858077;75;21110;-83
2023/06/22 04:48:01;;;;;;;9.28;2.45;;;35.10;81.20;;;;;;1821090;77;21201;-76
2023/06/22 04:50:32;;;;;;;19.27;5.08;;;35.10;80.10;;;;;;1828393;76;21228;-77
2023/06/22 04:53:05;;;;;;;14.55;3.52;;;35.10;80.20;;;;;;1829723;76;21142;-78
2023/06/22 04:55:37;;;;;;;7.97;2.65;;;35.10;79.80;;;;;;1829075;76;21123;-75
2023/06/22 04:58:09;;;;;;;6.08;2.25;;;35.10;80.40;;;;;;1800950;78;21179;-76
2023/06/22 05:00:41;;;;;;;13.65;2.80;;;35.30;79.70;;;;;;1798406;78;21164;-74
2023/06/22 05:03:13;;;;;;;11.75;3.00;;;35.30;79.80;;;;;;1860943;75;21083;-80
2023/06/22 05:05:47;;;;;;;8.80;2.25;;;35.40;78.90;;;;;;1824458;76;21612;-75
2023/06/22 05:08:19;;;;;;;12.45;2.50;;;35.40;78.70;;;;;;1800908;78;21251;-76
2023/06/22 05:10:51;;;;;;;10.70;4.00;;;;;;;;;;1859412;76;21231;-77
2023/06/22 05:13:26;;;;;;;7.15;2.85;;;35.70;76.90;;;;;;1858103;75;21734;-80
2023/06/22 05:16:01;;;;;;;8.00;2.90;;;35.80;76.50;;;;;;1851429;76;21138;-78
2023/06/22 05:18:43;;;;;;;6.25;2.40;;;36.00;76.90;;;;;;1851385;76;21228;-76
2023/06/22 05:21:14;;;;;;;4.30;2.75;;;36.00;75.90;;;;;;1852529;76;21247;-78
2023/06/22 05:23:48;;;;;;;6.03;2.10;;;36.00;76.00;;;;;;1844377;76;21084;-78
2023/06/22 05:26:23;;;;;;;5.35;2.47;;;36.10;74.50;;;;;;1854819;76;21267;-76
2023/06/22 05:28:56;;;;;;;8.35;2.50;;;36.10;73.10;;;;;;1851867;76;21154;-76
2023/06/22 05:31:29;;;;;;;4.17;1.82;;;36.00;74.80;;;;;;1863214;76;21071;-76
2023/06/22 05:34:02;;;;;;;7.03;2.40;;;35.90;74.70;;;;;;1844112;76;21447;-75
2023/06/22 05:36:34;;;;;;;5.10;2.65;;;35.70;75.60;;;;;;1845311;75;21152;-77
2023/06/22 05:39:16;;;;;;;8.65;2.33;;;35.70;74.50;;;;;;1860944;76;21117;-76
2023/06/22 05:41:48;;;;;;;7.28;2.58;;;35.70;74.60;;;;;;1815696;78;21193;-76
2023/06/22 05:44:21;;;;;;;5.40;2.08;;;35.80;76.60;;;;;;1886060;75;21060;-77
2023/06/22 05:46:54;;;;;;;5.83;2.10;;;35.80;76.50;;;;;;1866397;75;21145;-76
2023/06/22 05:49:32;;;;;;;8.03;2.52;;;35.90;76.00;;;;;;1858269;76;21188;-79
2023/06/22 05:52:04;;;;;;;5.35;2.05;;;36.00;76.10;;;;;;1865530;76;21853;-77
2023/06/22 05:54:41;;;;;;;7.00;3.22;;;36.00;74.50;;;;;;1854572;76;21176;-78
2023/06/22 05:57:17;;;;;;;6.05;2.33;;;36.00;75.00;;;;;;1860719;76;21131;-76
2023/06/22 05:59:55;;;;;;;5.85;2.37;;;36.10;75.50;;;;;;1819312;78;21204;-83
2023/06/22 06:02:29;;;;;;;6.90;2.52;;;36.20;73.80;;;;;;1815654;77;21151;-82
2023/06/22 06:05:04;;;;;;;5.45;2.37;;;36.10;74.40;;;;;;1809100;77;21429;-78
2023/06/22 06:07:35;;;;;;;7.83;2.70;;;35.90;74.60;;;;;;1803465;78;21148;-80
2023/06/22 06:10:09;;;;;;;6.42;2.40;;;35.80;75.20;;;;;;1844622;76;21087;-78
2023/06/22 06:12:46;;;;;;;8.45;2.85;;;35.60;74.40;;;;;;1850808;76;21236;-81
2023/06/22 06:15:20;;;;;;;7.47;2.85;;;35.50;75.70;;;;;;1850341;76;21122;-80
2023/06/22 06:17:54;;;;;;;12.82;3.65;;;35.40;76.30;;;;;;1849218;76;21234;-78
2023/06/22 06:20:27;;;;;;;15.53;3.47;;;35.40;77.40;;;;;;1841336;76;21154;-75
2023/06/22 06:23:05;;;;;;;15.50;3.67;;;35.40;77.40;;;;;;1849228;76;21148;-77
2023/06/22 06:25:37;;;;;;;11.35;2.92;;;35.40;76.90;;;;;;1876422;75;21165;-76
2023/06/22 06:28:09;;;;;;;30.02;7.65;;;35.60;76.20;;;;;;1848877;76;21072;-76
2023/06/22 06:30:47;;;;;;;5.70;2.10;;;35.70;75.30;;;;;;1846924;76;21191;-81
2023/06/22 06:33:31;;;;;;;23.47;5.00;;;35.70;73.70;;;;;;1848872;78;21095;-79
2023/06/22 06:36:12;;;;;;;13.53;4.30;;;35.80;73.20;;;;;;1853377;76;21232;-79
2023/06/22 06:38:50;;;;;;;12.68;3.33;;;35.90;74.00;;;;;;1860573;76;21140;-80
2023/06/22 06:41:22;;;;;;;8.45;2.35;;;36.10;73.40;;;;;;1843413;76;21621;-81
2023/06/22 06:43:54;;;;;;;5.70;2.83;;;36.20;72.70;;;;;;1858638;76;21090;-81
2023/06/22 06:46:26;;;;;;;3.42;2.27;;;36.20;72.30;;;;;;1854556;75;21198;-79
2023/06/22 06:49:00;;;;;;;15.10;5.47;;;36.20;71.80;;;;;;1847721;76;21082;-80
2023/06/22 06:51:32;;;;;;;15.10;3.72;;;36.10;73.00;;;;;;1855598;76;21149;-82
2023/06/22 06:54:03;;;;;;;47.20;9.13;;;36.00;72.40;;;;;;1856775;76;21143;-78
2023/06/22 06:56:35;;;;;;;13.48;4.50;;;36.00;73.20;;;;;;1851485;76;21203;-77
2023/06/22 06:59:08;;;;;;;84.42;13.65;;;36.10;73.50;;;;;;1859933;76;21091;-76
2023/06/22 07:01:41;;;;;;;21.37;3.62;;;36.10;73.40;;;;;;1853128;76;21176;-77
2023/06/22 07:04:20;;;;;;;30.20;4.33;;;36.10;70.40;;;;;;1865179;76;21130;-76
2023/06/22 07:06:52;;;;;;;6.17;2.90;;;36.10;71.50;;;;;;1863758;76;21144;-81
2023/06/22 07:09:25;;;;;;;26.02;4.50;;;36.10;72.50;;;;;;1799644;79;21171;-77
2023/06/22 07:11:56;;;;;;;17.55;4.78;;;36.10;72.30;;;;;;1822472;76;21207;-80
2023/06/22 07:14:29;;;;;;;14.90;4.10;;;36.20;73.10;;;;;;1820674;76;21172;-78
2023/06/22 07:17:02;;;;;;;9.60;2.67;;;36.20;72.40;;;;;;1844655;77;21143;-82
2023/06/22 07:19:35;;;;;;;51.92;8.33;;;36.10;73.00;;;;;;1795904;78;21081;-82
2023/06/22 07:22:08;;;;;;;12.07;2.72;;;36.10;72.70;;;;;;1802469;78;21155;-79
2023/06/22 07:24:40;;;;;;;7.97;2.33;;;36.10;73.20;;;;;;1808262;79;21545;-82
2023/06/22 07:27:13;;;;;;;5.20;2.17;;;36.10;72.40;;;;;;1832599;77;21146;-76
2023/06/22 07:29:51;;;;;;;4.37;2.30;;;36.10;72.40;;;;;;1846255;76;21110;-82
2023/06/22 07:32:26;;;;;;;9.63;2.93;;;36.10;72.00;;;;;;1818431;79;21057;-78
2023/06/22 07:35:04;;;;;;;12.13;2.92;;;36.10;72.00;;;;;;1802093;78;21097;-81
2023/06/22 07:37:36;;;;;;;9.75;2.60;;;36.20;71.80;;;;;;1825972;76;21085;-81
2023/06/22 07:40:27;;;;;;;11.97;3.98;;;36.20;71.70;;;;;;1837754;76;21178;-78
2023/06/22 07:43:02;;;;;;;9.35;4.12;;;36.30;71.60;;;;;;1855483;76;21277;-80
2023/06/22 07:45:37;;;;;;;7.72;2.60;;;36.30;71.30;;;;;;1804186;78;21078;-77
2023/06/22 07:48:12;;;;;;;6.80;2.80;;;36.30;72.10;;;;;;1856871;76;21048;-78
2023/06/22 07:50:52;;;;;;;4.40;2.08;;;36.30;71.30;;;;;;1845901;77;21149;-81
2023/06/22 07:53:24;;;;;;;15.32;3.00;;;36.40;68.30;;;;;;1822955;77;21224;-80
2023/06/22 07:55:59;;;;;;;20.70;3.87;;;36.40;69.10;;;;;;1818881;78;21570;-79
2023/06/22 07:58:31;;;;;;;7.92;2.50;;;36.40;68.00;;;;;;1790556;78;21141;-83
2023/06/22 08:01:07;;;;;;;8.40;3.12;;;36.40;68.60;;;;;;1855737;76;21149;-79
2023/06/22 08:03:40;;;;;;;16.17;3.50;;;36.50;65.90;;;;;;1858053;75;21177;-75
2023/06/22 08:06:12;;;;;;;6.50;1.92;;;36.50;66.50;;;;;;1857334;76;21204;-81
2023/06/22 08:08:47;;;;;;;5.78;2.12;;;36.50;66.90;;;;;;1867320;75;21120;-80
2023/06/22 08:11:25;;;;;;;8.68;2.52;;;36.50;67.80;;;;;;1866602;75;21084;-78
2023/06/22 08:13:58;;;;;;;5.33;2.50;;;36.40;67.40;;;;;;1870223;75;21681;-79
2023/06/22 08:16:33;;;;;;;4.80;2.42;;;36.30;68.40;;;;;;1856470;75;21160;-78
2023/06/22 08:19:06;;;;;;;;;;;36.20;67.50;;;;;;1849272;76;21135;-77
2023/06/22 08:21:38;;;;;;;14.18;3.35;;;36.20;70.50;;;;;;1828306;77;20179;-78
2023/06/22 08:24:13;;;;;;;14.00;3.15;;;36.20;68.30;;;;;;1829692;77;21226;-77
2023/06/22 08:26:46;;;;;;;9.40;2.50;;;36.10;68.80;;;;;;1828733;77;21211;-76
2023/06/22 08:29:18;;;;;;;6.70;2.80;;;36.10;68.60;;;;;;1820916;77;21216;-78
2023/06/22 08:32:02;;;;;;;7.58;2.72;;;36.20;68.80;;;;;;1862880;75;21090;-79
2023/06/22 08:34:40;;;;;;;15.60;3.30;;;36.10;69.00;;;;;;1865101;75;21150;-77
2023/06/22 08:37:13;;;;;;;5.22;2.50;;;36.10;68.70;;;;;;1857007;76;21132;-79
2023/06/22 08:39:45;;;;;;;16.80;3.00;;;36.10;69.00;;;;;;1817521;77;21054;-78
2023/06/22 08:42:19;;;;;;;14.98;2.83;;;36.10;68.70;;;;;;1803609;78;21110;-80
2023/06/22 08:44:53;;;;;;;4.30;2.12;;;36.10;69.20;;;;;;1849332;76;21137;-78
2023/06/22 08:47:24;;;;;;;7.22;2.25;;;36.20;68.60;;;;;;1857747;75;21271;-77
2023/06/22 08:49:57;;;;;;;6.37;2.35;;;36.20;68.80;;;;;;1861403;76;21068;-78
2023/06/22 08:52:28;;;;;;;10.50;2.85;;;36.20;68.40;;;;;;1805769;78;21223;-78
2023/06/22 08:55:03;;;;;;;6.33;2.40;;;36.20;69.20;;;;;;1828610;77;21195;-78
2023/06/22 08:57:39;;;;;;;4.15;2.37;;;36.20;68.50;;;;;;1852886;76;21109;-78
2023/06/22 09:00:19;;;;;;;4.87;2.27;;;36.10;69.50;;;;;;1804929;78;21174;-78
2023/06/22 09:02:52;;;;;;;6.03;2.47;;;36.10;69.60;;;;;;1817900;77;21140;-77
2023/06/22 09:05:30;;;;;;;7.83;2.35;;;36.00;69.50;;;;;;1859540;76;21126;-80
2023/06/22 09:08:00;;;;;;;4.45;2.33;;;35.90;70.00;;;;;;1861048;76;21154;-78
2023/06/22 09:10:32;;;;;;;8.33;2.35;;;35.90;70.00;;;;;;1856590;75;21201;-78
2023/06/22 09:13:04;;;;;;;6.40;2.20;;;35.90;70.40;;;;;;1863903;76;21142;-77
2023/06/22 09:15:37;;;;;;;10.05;3.87;;;35.90;69.10;;;;;;1859932;76;21132;-78
2023/06/22 09:18:09;;;;;;;4.22;2.33;;;35.90;70.20;;;;;;1858336;76;21143;-79
2023/06/22 09:20:42;;;;;;;4.33;1.87;;;35.80;69.70;;;;;;1864858;75;21666;-79
2023/06/22 09:23:16;;;;;;;6.10;2.10;;;35.80;70.40;;;;;;1874367;76;21087;-79
2023/06/22 09:25:51;;;;;;;2.55;1.40;;;35.80;68.70;;;;;;1860295;76;21134;-77
2023/06/22 09:28:24;;;;;;;8.13;2.70;;;35.80;66.70;;;;;;1863044;75;21154;-78
2023/06/22 09:30:58;;;;;;;6.58;1.50;;;35.90;66.50;;;;;;1866128;76;21111;-76
2023/06/22 09:33:30;;;;;;;4.80;1.57;;;35.90;65.50;;;;;;1825821;76;21201;-77
2023/06/22 09:36:01;;;;;;;4.55;1.57;;;35.90;66.20;;;;;;1883349;74;21822;-77
2023/06/22 09:38:32;;;;;;;13.62;2.40;;;35.90;66.60;;;;;;1846126;76;21199;-78
2023/06/22 09:41:05;;;;;;;5.17;2.02;;;35.80;67.00;;;;;;1882841;74;21223;-77
2023/06/22 09:43:43;;;;;;;7.20;2.08;;;35.80;66.70;;;;;;1890963;74;21191;-78
2023/06/22 09:46:35;;;;;;;5.28;2.10;;;35.80;67.40;;;;;;1888098;74;21114;-77
2023/06/22 09:49:13;;;;;;;7.72;2.40;;;35.80;66.50;;;;;;1892876;74;21061;-79
2023/06/22 09:51:49;;;;;;;5.90;2.20;;;35.70;67.10;;;;;;1888792;74;21193;-78
2023/06/22 09:54:21;;;;;;;9.38;2.80;;;35.80;70.10;;;;;;1885836;74;21079;-78
2023/06/22 09:56:54;;;;;;;5.83;2.15;;;35.80;71.20;;;;;;1841127;77;21146;-77
2023/06/22 09:59:27;;;;;;;7.75;2.40;;;35.70;71.20;;;;;;1890840;74;21130;-78
2023/06/22 10:01:59;;;;;;;9.73;2.33;;;35.60;71.30;;;;;;1888029;74;21155;-76
2023/06/22 10:04:34;;;;;;;10.05;2.80;;;35.60;71.40;;;;;;1889145;74;21169;-78
2023/06/22 10:07:10;;;;;;;6.40;2.47;;;35.50;72.00;;;;;;1836521;76;21489;-80
2023/06/22 10:09:57;;;;;;;6.30;3.65;;;35.50;72.30;;;;;;1892156;74;21234;-78
2023/06/22 10:12:38;;;;;;;4.83;1.98;;;35.40;73.00;;;;;;1889768;74;22257;-80
2023/06/22 10:15:28;;;;;;;7.17;2.20;;;35.40;72.80;;;;;;1879266;75;21217;-79
2023/06/22 10:18:04;;;;;;;5.20;2.22;;;35.30;73.10;;;;;;1887293;75;21304;-77
2023/06/22 10:20:37;;;;;;;9.25;2.50;;;35.30;73.20;;;;;;1895605;74;21137;-78
2023/06/22 10:23:09;;;;;;;7.55;2.92;;;35.30;74.10;;;;;;1881961;74;22179;-78
2023/06/22 10:25:42;;;;;;;9.63;5.08;;;35.30;74.70;;;;;;1881857;74;21191;-80
2023/06/22 10:28:13;;;;;;;5.62;2.20;;;35.30;74.90;;;;;;1832552;76;21122;-78
2023/06/22 10:30:45;;;;;;;7.53;2.42;;;35.10;75.20;;;;;;1894603;74;21091;-75
2023/06/22 10:33:26;;;;;;;5.30;2.30;;;35.10;75.60;;;;;;1893780;74;21628;-79
2023/06/22 10:36:04;;;;;;;6.65;2.40;;;35.10;75.60;;;;;;1884239;74;21074;-80
2023/06/22 10:38:36;;;;;;;6.40;2.40;;;35.10;75.80;;;;;;1884697;74;21177;-80
2023/06/22 10:41:07;;;;;;;6.80;2.55;;;35.10;76.50;;;;;;1889831;74;21529;-80
2023/06/22 10:43:50;;;;;;;9.75;3.52;;;35.10;76.60;;;;;;1890752;74;21523;-80
2023/06/22 10:46:30;;;;;;;7.40;2.87;;;35.00;77.20;;;;;;1898493;74;21234;-80
2023/06/22 10:48:59;;;;;;;10.48;3.60;;;35.00;76.20;;;;;;1892607;74;21675;-80
2023/06/22 10:51:32;;;;;;;19.67;5.33;;;35.00;75.40;;;;;;1896143;74;21147;-82
2023/06/22 10:54:06;;;;;;;11.55;2.55;;;34.90;75.50;;;;;;1893815;74;21255;-77
2023/06/22 10:56:39;;;;;;;12.45;3.33;;;34.90;75.10;;;;;;1828445;76;21126;-79
2023/06/22 10:59:13;;;;;;;11.28;3.20;;;34.80;75.40;;;;;;1835852;76;21164;-83
2023/06/22 11:01:44;;;;;;;17.45;3.45;;;34.80;75.40;;;;;;1836327;77;21118;-84
2023/06/22 11:04:17;;;;;;;12.78;3.77;;;34.80;75.50;;;;;;1837560;76;21072;-78
2023/06/22 11:06:50;;;;;;;12.65;4.05;;;34.80;75.10;;;;;;1895236;74;21111;-79
2023/06/22 11:09:25;;;;;;;8.80;3.25;;;34.80;75.60;;;;;;1905640;74;21150;-82
2023/06/22 11:12:01;;;;;;;9.73;3.77;;;34.80;76.70;;;;;;1917822;73;21137;-83
2023/06/22 11:14:35;;;;;;;10.60;3.75;;;34.70;76.90;;;;;;1841996;76;21138;-79
2023/06/22 11:17:07;;;;;;;8.33;3.87;;;34.60;77.20;;;;;;1838184;76;21070;-80
2023/06/22 11:19:39;;;;;;;8.13;3.20;;;34.40;77.30;;;;;;1844414;76;21141;-78
2023/06/22 11:22:10;;;;;;;26.45;5.37;;;34.40;77.00;;;;;;1884673;74;21576;-81
2023/06/22 11:24:43;;;;;;;30.68;5.65;;;34.30;77.10;;;;;;1828913;76;21166;-81
2023/06/22 11:27:19;;;;;;;13.30;3.60;;;34.30;77.60;;;;;;1843572;76;21090;-82
2023/06/22 11:29:52;;;;;;;13.65;3.15;;;34.30;77.80;;;;;;1894833;74;21239;-80
2023/06/22 11:32:30;;;;;;;6.53;2.77;;;34.20;77.60;;;;;;1847485;76;21187;-81
2023/06/22 11:35:08;;;;;;;13.43;4.35;;;34.20;78.80;;;;;;1846710;76;21238;-81
2023/06/22 11:37:39;;;;;;;45.23;7.80;;;34.20;77.80;;;;;;1819951;77;21130;-82
2023/06/22 11:40:13;;;;;;;52.40;9.15;;;34.10;78.00;;;;;;1830599;77;21174;-82
2023/06/22 11:42:45;;;;;;;20.15;5.58;;;34.10;78.90;;;;;;1826315;77;21272;-81
2023/06/22 11:45:18;;;;;;;15.08;4.50;;;34.10;78.50;;;;;;1828652;77;21123;-80
2023/06/22 11:47:51;;;;;;;6.12;3.20;;;34.10;78.70;;;;;;1818704;78;21130;-81
2023/06/22 11:50:22;;;;;;;21.20;7.85;;;34.00;78.50;;;;;;1819650;77;21692;-79
2023/06/22 11:52:54;;;;;;;15.93;7.08;;;34.00;78.70;;;;;;1823218;77;21244;-76
2023/06/22 11:55:28;;;;;;;12.43;4.03;;;34.00;78.90;;;;;;1818323;77;21122;-77
2023/06/22 11:58:03;;;;;;;7.75;3.60;;;34.00;78.90;;;;;;1820008;77;21085;-77
2023/06/22 12:00:34;;;;;;;7.80;3.55;;;34.00;79.00;;;;;;1822237;77;21304;-77
2023/06/22 12:03:07;;;;;;;8.55;3.67;;;33.90;78.70;;;;;;1816928;77;21203;-76
2023/06/22 12:05:41;;;;;;;9.03;4.15;;;33.90;78.90;;;;;;1843058;76;21173;-75
2023/06/22 12:08:14;;;;;;;6.58;3.65;;;33.90;79.00;;;;;;1894375;74;21059;-76
2023/06/22 12:10:45;;;;;;;8.60;3.87;;;33.80;79.10;;;;;;1856836;76;21173;-81
2023/06/22 12:13:17;;;;;;;8.78;3.30;;;33.80;79.20;;;;;;1903910;74;21178;-78
2023/06/22 12:15:52;;;;;;;7.85;3.80;;;33.80;79.40;;;;;;1846014;78;21127;-84
2023/06/22 12:18:24;;;;;;;9.28;3.72;;;33.80;79.60;;;;;;1888702;74;21071;-81
2023/06/22 12:20:56;;;;;;;11.38;3.87;;;33.70;79.50;;;;;;1844115;76;21126;-81
2023/06/22 12:23:28;;;;;;;6.65;3.83;;;33.70;79.60;;;;;;1888235;74;21241;-80
2023/06/22 12:26:01;;;;;;;11.18;4.10;;;33.70;79.70;;;;;;1846333;76;21157;-82
2023/06/22 12:28:35;;;;;;;12.05;4.17;;;33.70;80.20;;;;;;1909609;74;21326;-82
2023/06/22 12:31:08;;;;;;;14.93;4.75;;;33.70;80.60;;;;;;1838236;76;21188;-82
2023/06/22 12:33:43;;;;;;;10.10;4.65;;;33.70;80.10;;;;;;1889673;74;21213;-80
2023/06/22 12:36:14;;;;;;;9.98;4.15;;;33.70;80.10;;;;;;1836453;76;21158;-78
2023/06/22 12:38:47;;;;;;;8.18;4.45;;;33.70;80.00;;;;;;1909145;74;21223;-79
2023/06/22 12:41:21;;;;;;;19.62;7.80;;;33.70;80.10;;;;;;1830024;76;21221;-75
2023/06/22 12:43:55;;;;;;;9.50;4.40;;;33.70;80.40;;;;;;1900123;74;21168;-80
2023/06/22 12:46:41;;;;;;;11.78;4.60;;;33.70;79.90;;;;;;1901521;74;21110;-80
2023/06/22 12:49:15;;;;;;;8.58;4.75;;;33.70;80.20;;;;;;1892580;74;21158;-74
2023/06/22 12:51:47;;;;;;;10.65;4.20;;;33.60;80.20;;;;;;1883326;74;21182;-76
2023/06/22 12:54:20;;;;;;;11.08;5.15;;;33.60;80.40;;;;;;1895070;74;21237;-79
2023/06/22 12:56:55;;;;;;;13.43;5.05;;;33.60;80.50;;;;;;1863594;75;21128;-81
2023/06/22 12:59:28;;;;;;;12.78;4.72;;;33.60;80.50;;;;;;1892395;74;21079;-81
2023/06/22 13:01:59;;;;;;;14.23;4.83;;;33.60;80.50;;;;;;1893178;74;21121;-76
2023/06/22 13:04:32;;;;;;;8.70;3.90;;;33.60;80.60;;;;;;1847318;76;21079;-80
2023/06/22 13:07:05;;;;;;;10.53;4.35;;;33.60;80.60;;;;;;1886067;74;21134;-80
2023/06/22 13:09:42;;;;;;;8.83;4.60;;;33.60;80.60;;;;;;1881530;74;21178;-80
2023/06/22 13:12:13;;;;;;;10.48;4.25;;;33.60;80.50;;;;;;1889088;74;21141;-79
2023/06/22 13:14:46;;;;;;;7.80;3.85;;;33.50;80.70;;;;;;1887182;74;21155;-80
2023/06/22 13:17:22;;;;;;;13.90;4.12;;;33.50;80.90;;;;;;1888803;74;21074;-77